Time;durP1;ratioP1;P1;durP2;ratioP2;P2;SDS_P1;SDS_P2;PMS_P1;PMS_P2;Temp;Humidity;BMP_temperature;BMP_pressure;BME280_temperature;BME280_humidity;BME280_pressure;Samples;Min_cycle;Max_cycle;Signal;HPM_P1;HPM_P2
2021/09/09 00:01:00;;;;;;;;;50.25;42.00;;;;;13.25;60.30;102217.13;4843253;29;11700;-78
2021/09/09 00:03:56;;;;;;;;;45.50;39.75;;;;;13.09;60.58;102227.72;4843012;29;12451;-78
2021/09/09 00:06:51;;;;;;;;;50.25;42.25;;;;;13.13;60.53;102227.13;4843777;29;11694;-78
2021/09/09 00:09:47;;;;;;;;;51.00;42.50;;;;;13.25;61.47;102225.44;4842933;29;11793;-79
2021/09/09 00:12:44;;;;;;;;;48.00;40.75;;;;;13.21;60.83;102218.91;4842908;29;11668;-78
2021/09/09 00:15:39;;;;;;;;;57.25;47.00;;;;;13.20;60.92;102222.81;4831827;29;11663;-79
2021/09/09 00:18:35;;;;;;;;;54.75;45.75;;;;;13.27;60.32;102216.84;4842744;29;11705;-78
2021/09/09 00:21:31;;;;;;;;;54.50;45.75;;;;;13.02;60.56;102218.97;4844266;29;11677;-79
2021/09/09 00:23:59;;;;;;;;;51.00;41.75;;;;;13.04;61.30;102221.47;4844160;29;11658;-78
2021/09/09 00:26:55;;;;;;;;;56.00;48.00;;;;;13.03;60.84;102217.03;4843403;29;11693;-79
2021/09/09 00:29:51;;;;;;;;;57.75;47.75;;;;;12.96;60.32;102217.47;4843232;29;11761;-80
2021/09/09 00:32:46;;;;;;;;;62.00;48.75;;;;;12.80;61.02;102216.13;4844087;29;11734;-79
2021/09/09 00:35:42;;;;;;;;;60.75;49.25;;;;;12.72;61.20;102202.94;4831671;29;12546;-80
2021/09/09 00:38:37;;;;;;;;;59.25;50.25;;;;;12.73;61.15;102202.66;4842564;29;11775;-79
2021/09/09 00:41:33;;;;;;;;;63.25;49.25;;;;;12.71;61.30;102210.47;4842358;29;11766;-80
2021/09/09 00:44:29;;;;;;;;;61.75;50.75;;;;;12.51;61.85;102208.09;4842189;29;11807;-80
2021/09/09 00:47:25;;;;;;;;;68.00;53.25;;;;;12.32;62.78;102210.13;4871204;29;11710;-79
2021/09/09 00:50:20;;;;;;;;;65.25;50.75;;;;;12.45;62.70;102212.09;4867641;29;11797;-80
2021/09/09 00:53:17;;;;;;;;;67.00;53.50;;;;;12.46;62.32;102208.19;4880013;29;11765;-80
2021/09/09 00:56:13;;;;;;;;;64.25;52.25;;;;;12.55;61.60;102206.34;4843076;29;11766;-80
2021/09/09 00:59:09;;;;;;;;;60.25;50.25;;;;;12.58;61.39;102204.94;4842232;29;11757;-79
2021/09/09 01:02:05;;;;;;;;;71.25;54.25;;;;;12.59;61.44;102201.03;4842847;29;11752;-80
2021/09/09 01:05:00;;;;;;;;;67.75;55.25;;;;;12.65;61.62;102208.09;4842768;29;11763;-80
2021/09/09 01:07:57;;;;;;;;;80.25;62.75;;;;;12.83;61.53;102209.13;4842675;29;11769;-80
2021/09/09 01:10:52;;;;;;;;;86.25;68.00;;;;;12.69;61.32;102207.19;4843582;29;11999;-80
2021/09/09 01:13:52;;;;;;;;;94.00;78.00;;;;;12.58;61.75;102202.16;4843249;29;11910;-80
2021/09/09 01:16:48;;;;;;;;;94.50;80.25;;;;;12.44;62.48;102207.69;4841996;29;11841;-79
2021/09/09 01:19:44;;;;;;;;;96.75;81.00;;;;;12.42;61.97;102204.38;4842590;29;11770;-79
2021/09/09 01:22:40;;;;;;;;;89.25;74.00;;;;;12.34;62.15;102203.13;4843267;29;11905;-80
2021/09/09 01:25:36;;;;;;;;;94.50;76.75;;;;;12.48;61.55;102200.38;4849507;29;11789;-79
2021/09/09 01:28:31;;;;;;;;;89.25;78.25;;;;;12.48;61.61;102200.38;4843665;29;11786;-80
2021/09/09 01:31:27;;;;;;;;;87.00;73.50;;;;;12.37;61.52;102196.16;4830028;29;11748;-80
2021/09/09 01:34:23;;;;;;;;;87.75;72.50;;;;;12.29;61.98;102194.94;4865940;29;11781;-80
2021/09/09 01:37:19;;;;;;;;;85.00;72.25;;;;;12.11;62.61;102195.78;4869481;29;11788;-80
2021/09/09 01:40:14;;;;;;;;;86.50;70.00;;;;;12.42;61.99;102188.56;4870369;29;11816;-79
2021/09/09 01:43:10;;;;;;;;;88.00;73.00;;;;;12.49;61.92;102185.38;4861439;29;11806;-78
2021/09/09 01:46:05;;;;;;;;;87.75;74.25;;;;;12.53;61.39;102190.00;4868504;29;11800;-79
2021/09/09 01:49:02;;;;;;;;;88.50;72.50;;;;;12.31;61.88;102187.09;4868387;29;11765;-80
2021/09/09 01:51:58;;;;;;;;;84.00;66.25;;;;;12.35;61.45;102196.47;4869163;29;11757;-80
2021/09/09 01:54:53;;;;;;;;;85.75;71.50;;;;;12.13;61.84;102188.84;4868968;29;12561;-80
2021/09/09 01:57:49;;;;;;;;;81.50;68.75;;;;;11.92;62.54;102180.03;4864562;29;11758;-80
2021/09/09 02:00:44;;;;;;;;;89.00;73.50;;;;;11.90;63.24;102176.75;4864850;29;11760;-80
2021/09/09 02:03:40;;;;;;;;;90.25;71.00;;;;;12.06;62.81;102180.09;4868157;29;11784;-80
2021/09/09 02:06:36;;;;;;;;;86.75;64.75;;;;;11.99;62.09;102176.88;4855536;29;11802;-80
2021/09/09 02:09:31;;;;;;;;;86.25;69.00;;;;;11.98;62.25;102177.19;4867378;29;12751;-79
2021/09/09 02:12:27;;;;;;;;;78.75;61.75;;;;;11.95;62.33;102171.09;4866153;29;11776;-80
2021/09/09 02:15:22;;;;;;;;;70.00;57.25;;;;;11.88;62.23;102170.69;4852566;29;11728;-80
2021/09/09 02:18:18;;;;;;;;;71.25;57.25;;;;;11.98;62.93;102169.69;4867514;29;11752;-80
2021/09/09 02:21:14;;;;;;;;;61.75;51.25;;;;;12.01;62.61;102159.94;4868143;29;11854;-80
2021/09/09 02:24:10;;;;;;;;;63.75;50.50;;;;;11.88;62.79;102164.31;4869584;29;11729;-80
2021/09/09 02:27:05;;;;;;;;;54.50;45.75;;;;;11.84;62.83;102166.06;4866922;29;11759;-79
2021/09/09 02:30:01;;;;;;;;;62.50;51.50;;;;;11.80;62.90;102174.16;4865828;29;11752;-79
2021/09/09 02:32:56;;;;;;;;;57.00;47.00;;;;;11.68;63.38;102168.25;4867507;29;11828;-79
2021/09/09 02:35:52;;;;;;;;;55.00;47.00;;;;;11.62;63.85;102163.91;4866539;29;11707;-79
2021/09/09 02:38:48;;;;;;;;;55.50;48.00;;;;;11.68;63.50;102157.16;4869340;29;11748;-80
2021/09/09 02:41:43;;;;;;;;;56.75;46.75;;;;;11.76;63.27;102159.22;4854326;29;11704;-80
2021/09/09 02:44:39;;;;;;;;;47.75;40.00;;;;;11.84;63.11;102157.75;4856808;29;11716;-79
2021/09/09 02:47:35;;;;;;;;;56.25;46.25;;;;;11.77;62.79;102165.59;4867307;29;11918;-80
2021/09/09 02:50:31;;;;;;;;;64.50;49.00;;;;;11.58;62.94;102168.41;4865207;29;11764;-79
2021/09/09 02:53:27;;;;;;;;;54.50;41.75;;;;;11.37;64.06;102171.50;4845350;29;12631;-79
2021/09/09 02:56:22;;;;;;;;;59.75;49.50;;;;;11.35;64.40;102176.53;4829741;29;11773;-79
2021/09/09 02:59:18;;;;;;;;;65.00;54.00;;;;;11.36;64.05;102167.09;4846236;29;11790;-79
2021/09/09 03:02:13;;;;;;;;;63.00;51.00;;;;;11.26;64.32;102163.63;4862584;29;11720;-80
2021/09/09 03:05:09;;;;;;;;;64.75;48.75;;;;;11.31;63.88;102169.09;4859389;29;11752;-78
2021/09/09 03:08:05;;;;;;;;;67.25;54.25;;;;;11.16;64.34;102172.91;4840638;29;11829;-78
2021/09/09 03:11:01;;;;;;;;;65.75;51.50;;;;;11.12;64.95;102171.88;4840939;29;11726;-78
2021/09/09 03:13:57;;;;;;;;;58.00;48.50;;;;;11.16;64.45;102175.69;4847177;29;11730;-79
2021/09/09 03:16:52;;;;;;;;;50.75;40.50;;;;;11.08;64.49;102171.63;4847905;29;11739;-79
2021/09/09 03:19:48;;;;;;;;;58.00;49.50;;;;;10.94;65.36;102190.09;4856741;29;11748;-79
2021/09/09 03:22:44;;;;;;;;;61.50;50.50;;;;;11.01;65.53;102176.72;4848764;29;11776;-79
2021/09/09 03:25:39;;;;;;;;;58.00;49.00;;;;;11.07;65.40;102183.03;4846848;29;12549;-78
2021/09/09 03:28:35;;;;;;;;;59.75;48.00;;;;;11.12;65.37;102177.41;4859493;29;11730;-79
2021/09/09 03:31:31;;;;;;;;;59.75;49.50;;;;;11.04;65.80;102180.81;4859559;29;11723;-79
2021/09/09 03:34:26;;;;;;;;;56.00;45.50;;;;;11.20;65.58;102179.50;4854058;29;11761;-78
2021/09/09 03:37:22;;;;;;;;;58.50;47.00;;;;;11.55;65.76;102180.09;4856646;29;11843;-78
2021/09/09 03:40:18;;;;;;;;;63.25;53.25;;;;;11.70;64.54;102180.66;4858309;29;11767;-78
2021/09/09 03:43:13;;;;;;;;;68.50;54.75;;;;;11.59;64.43;102181.16;4854617;29;11842;-79
2021/09/09 03:46:09;;;;;;;;;67.75;54.75;;;;;11.52;64.48;102184.28;4844666;29;11748;-79
2021/09/09 03:49:04;;;;;;;;;61.50;49.50;;;;;11.79;65.50;102186.34;4850586;29;11738;-79
2021/09/09 03:52:00;;;;;;;;;56.25;48.00;;;;;12.12;64.92;102192.75;4859049;29;11743;-81
2021/09/09 03:54:55;;;;;;;;;61.25;51.00;;;;;12.19;63.58;102192.31;4846587;29;11792;-80
2021/09/09 03:57:51;;;;;;;;;63.25;49.75;;;;;12.25;63.73;102191.09;4860620;29;11728;-81
2021/09/09 04:00:46;;;;;;;;;63.00;49.00;;;;;12.31;62.95;102200.97;4861525;29;11761;-80
2021/09/09 04:03:42;;;;;;;;;55.50;47.00;;;;;12.45;64.38;102196.28;4861577;29;11771;-79
2021/09/09 04:06:38;;;;;;;;;61.00;50.50;;;;;12.44;62.69;102197.41;4844951;29;11769;-79
2021/09/09 04:09:34;;;;;;;;;69.00;53.75;;;;;12.20;62.50;102205.09;4862535;29;11773;-78
2021/09/09 04:12:30;;;;;;;;;57.50;46.50;;;;;12.15;62.89;102205.16;4861708;29;11735;-78
2021/09/09 04:15:26;;;;;;;;;58.75;50.25;;;;;12.21;62.83;102215.03;4846325;29;11748;-78
2021/09/09 04:18:21;;;;;;;;;63.00;49.75;;;;;12.15;62.77;102205.16;4847010;29;11746;-78
2021/09/09 04:21:17;;;;;;;;;60.75;49.00;;;;;12.24;62.97;102206.09;4860018;29;11737;-78
2021/09/09 04:24:12;;;;;;;;;63.75;53.50;;;;;12.38;62.54;102206.94;4862788;29;11863;-78
2021/09/09 04:27:08;;;;;;;;;58.25;49.50;;;;;12.35;63.11;102203.97;4863143;29;11734;-78
2021/09/09 04:30:05;;;;;;;;;70.75;56.25;;;;;12.40;63.02;102201.09;4873494;29;11697;-78
2021/09/09 04:33:00;;;;;;;;;76.00;58.75;;;;;12.46;63.45;102200.69;4861312;29;11718;-79
2021/09/09 04:35:56;;;;;;;;;99.75;72.00;;;;;12.56;63.43;102198.84;4863076;29;11829;-79
2021/09/09 04:38:52;;;;;;;;;80.00;61.00;;;;;12.71;63.03;102204.91;4861888;29;11824;-79
2021/09/09 04:41:47;;;;;;;;;82.00;65.75;;;;;12.89;62.84;102197.63;4863066;29;11714;-79
2021/09/09 04:44:43;;;;;;;;;87.25;62.25;;;;;13.04;62.18;102194.50;4862345;29;11730;-79
2021/09/09 04:47:38;;;;;;;;;84.25;72.75;;;;;13.09;62.61;102194.38;4861596;29;11826;-79
2021/09/09 04:50:34;;;;;;;;;88.00;74.75;;;;;13.31;62.28;102201.97;4862791;29;11867;-79
2021/09/09 04:53:35;;;;;;;;;92.50;81.00;;;;;13.42;61.87;102194.25;4861274;29;11722;-79
2021/09/09 04:56:31;;;;;;;;;62.75;43.25;;;;;13.62;60.84;102192.94;4862900;29;11877;-79
2021/09/09 04:59:26;;;;;;;;;90.75;80.50;;;;;13.94;61.51;102200.19;4872305;29;11660;-78
2021/09/09 05:02:22;;;;;;;;;96.00;78.25;;;;;14.41;61.67;102198.66;4862675;29;11900;-79
2021/09/09 05:05:17;;;;;;;;;102.75;86.50;;;;;14.54;59.63;102198.91;4872035;29;11746;-78
2021/09/09 05:08:13;;;;;;;;;91.50;71.75;;;;;15.01;60.56;102198.06;4872823;29;11740;-79
2021/09/09 05:11:10;;;;;;;;;87.50;72.50;;;;;15.38;59.80;102195.00;4861718;29;11754;-80
2021/09/09 05:14:07;;;;;;;;;86.25;76.00;;;;;15.29;57.57;102198.63;4871754;29;11749;-79
2021/09/09 05:17:03;;;;;;;;;56.25;46.75;;;;;15.73;60.25;102193.09;4862805;29;11743;-79
2021/09/09 05:19:58;;;;;;;;;64.50;51.75;;;;;16.35;58.49;102193.44;4872751;29;11658;-78
2021/09/09 05:22:54;;;;;;;;;86.75;77.25;;;;;16.56;56.44;102193.53;4850487;29;11706;-78
2021/09/09 05:25:49;;;;;;;;;85.50;70.50;;;;;16.34;56.16;102200.16;4844285;29;11801;-79
2021/09/09 05:28:45;;;;;;;;;105.75;88.25;;;;;16.09;56.08;102195.47;4837082;29;11797;-79
2021/09/09 05:31:40;;;;;;;;;96.75;81.50;;;;;16.39;56.26;102199.97;4860740;29;11808;-79
2021/09/09 05:34:36;;;;;;;;;105.50;94.25;;;;;16.37;55.18;102198.69;4868169;29;11852;-79
2021/09/09 05:37:32;;;;;;;;;84.00;68.25;;;;;16.54;56.85;102197.78;4880121;29;11883;-79
2021/09/09 05:40:27;;;;;;;;;85.00;77.25;;;;;17.12;55.42;102205.41;4879325;29;11779;-79
2021/09/09 05:43:23;;;;;;;;;91.00;81.50;;;;;17.56;54.56;102197.50;4862155;29;12511;-79
2021/09/09 05:46:18;;;;;;;;;92.25;81.25;;;;;17.68;53.60;102191.13;4865315;29;12540;-78
2021/09/09 05:49:14;;;;;;;;;89.25;79.25;;;;;18.09;53.43;102198.66;4878345;29;11786;-78
2021/09/09 05:52:09;;;;;;;;;75.00;61.00;;;;;18.00;53.53;102187.56;4878588;29;11784;-78
2021/09/09 05:55:05;;;;;;;;;90.75;79.00;;;;;18.05;51.66;102192.94;4878695;29;11846;-79
2021/09/09 05:58:01;;;;;;;;;81.50;71.75;;;;;18.27;52.73;102191.72;4865524;29;12569;-78
2021/09/09 06:00:56;;;;;;;;;62.75;49.00;;;;;18.44;49.51;102185.09;4859379;29;11812;-79
2021/09/09 06:03:52;;;;;;;;;37.25;34.25;;;;;18.70;50.21;102190.38;4878849;29;11007;-79
2021/09/09 06:06:48;;;;;;;;;61.25;49.75;;;;;18.83;46.96;102186.41;4861680;29;9860;-80
2021/09/09 06:09:44;;;;;;;;;31.00;30.33;;;;;18.89;44.87;102182.19;4848024;29;12092;-79
2021/09/09 06:12:40;;;;;;;;;18.25;18.25;;;;;19.02;44.28;102180.22;4860410;29;9319;-79
2021/09/09 06:15:35;;;;;;;;;32.33;30.67;;;;;19.30;44.47;102185.06;4861282;29;8859;-79
2021/09/09 06:18:32;;;;;;;;;31.67;29.67;;;;;19.63;45.25;102185.69;4874205;29;9153;-80
2021/09/09 06:21:27;;;;;;;;;72.00;58.50;;;;;19.82;46.50;102184.19;4878334;29;9843;-80
2021/09/09 06:24:23;;;;;;;;;19.00;18.75;;;;;19.86;42.33;102182.28;4866394;29;10713;-79
2021/09/09 06:27:18;;;;;;;;;44.33;38.67;;;;;19.84;40.45;102170.63;4860085;29;8887;-80
2021/09/09 06:30:14;;;;;;;;;44.33;39.00;;;;;20.18;43.12;102171.97;4867102;29;9468;-77
2021/09/09 06:33:09;;;;;;;;;21.50;21.50;;;;;20.42;40.97;102180.22;4878922;29;9022;-77
2021/09/09 06:36:07;;;;;;;;;50.00;42.00;;;;;20.62;43.00;102177.50;4879077;29;9576;-78
2021/09/09 06:39:03;;;;;;;;;27.00;25.25;;;;;20.88;41.23;102179.75;4878192;29;9689;-79
2021/09/09 06:41:59;;;;;;;;;16.25;16.25;;;;;20.89;39.26;102181.38;4874191;29;8894;-80
2021/09/09 06:44:54;;;;;;;;;19.67;19.67;;;;;20.83;38.35;102189.28;4860849;29;8889;-81
2021/09/09 06:47:50;;;;;;;;;77.75;72.50;;;;;21.23;41.63;102180.56;4870325;29;8898;-79
2021/09/09 06:50:45;;;;;;;;;24.25;24.25;;;;;21.43;39.59;102183.44;4861441;29;10700;-80
2021/09/09 06:53:41;;;;;;;;;84.00;82.50;;;;;21.65;40.21;102185.53;4848145;29;8878;-80
2021/09/09 06:56:37;;;;;;;;;106.50;101.50;;;;;21.91;41.01;102194.09;4859792;29;12507;-80
2021/09/09 06:59:33;;;;;;;;;17.00;17.00;;;;;21.98;34.70;102184.97;4859495;29;11843;-80
2021/09/09 07:02:28;;;;;;;;;13.00;13.00;;;;;22.05;33.15;102176.63;4860687;29;8898;-79
2021/09/09 07:05:24;;;;;;;;;13.75;13.75;;;;;22.20;33.31;102180.56;4859684;29;8912;-80
2021/09/09 07:08:19;;;;;;;;;12.75;12.75;;;;;22.27;31.90;102177.88;4859547;29;8882;-79
2021/09/09 07:11:15;;;;;;;;;19.25;19.25;;;;;22.45;33.58;102178.19;4859902;29;8928;-80
2021/09/09 07:14:10;;;;;;;;;20.00;19.75;;;;;22.69;32.40;102177.78;4858411;29;8885;-81
2021/09/09 07:17:06;;;;;;;;;76.50;70.25;;;;;23.08;35.57;102186.09;4860277;29;8898;-80
2021/09/09 07:20:03;;;;;;;;;12.75;12.75;;;;;22.96;30.87;102187.09;4859671;29;11222;-82
2021/09/09 07:22:59;;;;;;;;;13.25;13.25;;;;;23.26;31.73;102178.66;4859377;29;8862;-80
2021/09/09 07:25:54;;;;;;;;;47.75;41.00;;;;;23.56;31.45;102178.66;4859548;29;8854;-80
2021/09/09 07:28:50;;;;;;;;;17.75;17.75;;;;;23.83;31.28;102184.25;4869908;29;8854;-80
2021/09/09 07:31:46;;;;;;;;;19.20;19.20;;;;;23.99;29.68;102178.34;4859266;29;8906;-79
2021/09/09 07:34:42;;;;;;;;;10.00;10.00;;;;;23.77;29.70;102182.94;4863262;29;8881;-80
2021/09/09 07:37:39;;;;;;;;;37.00;33.25;;;;;23.99;30.11;102178.34;4873843;29;8865;-80
2021/09/09 07:40:34;;;;;;;;;6.60;6.60;;;;;23.88;28.21;102180.28;4843670;29;8964;-83
2021/09/09 07:43:30;;;;;;;;;18.25;12.75;;;;;23.79;29.74;102172.91;4850987;29;8883;-81
2021/09/09 07:46:30;;;;;;;;;45.50;38.00;;;;;24.10;30.34;102171.63;4853811;29;8878;-80
2021/09/09 07:49:25;;;;;;;;;43.25;37.75;;;;;24.22;30.75;102179.00;4862960;29;8866;-80
2021/09/09 07:52:21;;;;;;;;;69.75;59.00;;;;;24.50;30.90;102167.19;4868298;29;8867;-80
2021/09/09 07:55:18;;;;;;;;;51.00;43.00;;;;;24.42;29.53;102159.84;4881975;29;9847;-80
2021/09/09 07:58:15;;;;;;;;;41.75;36.00;;;;;24.66;29.89;102164.88;4868503;29;8864;-80
2021/09/09 08:01:11;;;;;;;;;17.50;17.25;;;;;24.79;28.12;102164.56;4871152;29;9604;-80
2021/09/09 08:04:06;;;;;;;;;26.50;26.50;;;;;24.85;28.65;102157.34;4876133;29;8947;-80
2021/09/09 08:07:02;;;;;;;;;69.00;59.75;;;;;25.10;29.77;102154.69;4869421;29;8862;-79
2021/09/09 08:09:58;;;;;;;;;80.25;77.00;;;;;25.13;29.14;102159.53;4868234;29;11592;-81
2021/09/09 08:12:53;;;;;;;;;60.67;50.33;;;;;25.10;28.93;102157.53;4880676;29;10475;-79
2021/09/09 08:15:49;;;;;;;;;49.25;42.00;;;;;25.31;28.41;102151.16;4870230;29;9528;-79
2021/09/09 08:18:44;;;;;;;;;22.20;20.80;;;;;25.27;26.79;102153.97;4861411;29;8885;-79
2021/09/09 08:21:40;;;;;;;;;19.20;19.20;;;;;25.48;26.78;102154.06;4858788;29;8886;-78
2021/09/09 08:24:35;;;;;;;;;15.40;15.40;;;;;25.59;26.37;102142.75;4844211;29;8861;-80
2021/09/09 08:27:31;;;;;;;;;54.75;45.75;;;;;25.86;28.78;102145.31;4831408;29;8935;-80
2021/09/09 08:30:27;;;;;;;;;12.80;12.80;;;;;25.72;27.04;102146.88;4831125;29;9596;-79
2021/09/09 08:33:22;;;;;;;;;11.20;11.00;;;;;25.33;25.16;102135.41;4843514;29;8884;-81
2021/09/09 08:36:19;;;;;;;;;17.80;17.80;;;;;25.93;25.37;102134.81;4844715;29;8861;-79
2021/09/09 08:39:14;;;;;;;;;8.60;8.60;;;;;25.99;24.61;102129.53;4843523;29;8861;-80
2021/09/09 08:42:12;;;;;;;;;9.20;9.20;;;;;25.93;24.34;102131.97;4843472;29;8900;-81
2021/09/09 08:45:08;;;;;;;;;12.00;12.00;;;;;26.15;25.73;102129.13;4841334;29;8873;-80
2021/09/09 08:48:04;;;;;;;;;12.60;12.60;;;;;26.31;26.02;102116.19;4830818;29;8869;-79
2021/09/09 08:51:00;;;;;;;;;11.40;11.40;;;;;26.58;25.28;102115.78;4843176;29;8977;-80
2021/09/09 08:53:57;;;;;;;;;14.60;14.60;;;;;26.37;24.99;102112.94;4844016;29;8869;-80
2021/09/09 08:56:53;;;;;;;;;15.20;15.20;;;;;26.30;24.96;102110.91;4843689;29;8969;-79
2021/09/09 08:59:48;;;;;;;;;12.40;11.80;;;;;26.49;24.50;102112.56;4843110;29;8896;-80
2021/09/09 09:02:53;;;;;;;;;10.60;10.60;;;;;27.08;24.66;102116.53;4842971;29;8869;-81
2021/09/09 09:05:49;;;;;;;;;13.40;13.40;;;;;27.15;25.29;102115.69;4843121;29;8924;-78
2021/09/09 09:08:50;;;;;;;;;19.20;19.00;;;;;27.26;24.83;102105.09;4842981;29;8887;-80
2021/09/09 09:11:50;;;;;;;;;7.00;7.00;;;;;26.99;24.80;102098.25;4842845;29;8876;-79
2021/09/09 09:14:46;;;;;;;;;11.20;10.20;;;;;27.73;24.54;102105.69;4841392;29;8949;-80
2021/09/09 09:18:01;;;;;;;;;17.20;16.20;;;;;27.82;24.04;102100.34;4843234;29;8892;-80
2021/09/09 09:20:57;;;;;;;;;14.00;14.00;;;;;27.83;24.69;102098.31;4842745;29;9712;-80
2021/09/09 09:24:00;;;;;;;;;7.80;7.80;;;;;28.01;23.54;102092.50;4841910;29;8884;-81
2021/09/09 09:27:12;;;;;;;;;13.00;12.60;;;;;28.39;23.16;102090.59;4842619;29;8880;-80
2021/09/09 09:30:09;;;;;;;;;16.00;12.80;;;;;28.39;22.96;102088.53;4831575;29;8891;-78
2021/09/09 09:33:05;;;;;;;;;12.40;11.60;;;;;28.43;24.15;102083.63;4842533;29;8952;-79
2021/09/09 09:36:22;;;;;;;;;32.80;23.00;;;;;28.34;23.77;102080.44;4842167;29;9012;-79
2021/09/09 09:39:19;;;;;;;;;14.20;14.20;;;;;27.95;24.32;102084.41;4844127;29;8873;-79
2021/09/09 09:42:15;;;;;;;;;12.00;10.40;;;;;28.51;23.81;102072.97;4842513;29;8861;-78
2021/09/09 09:45:12;;;;;;;;;12.60;12.60;;;;;28.23;22.76;102079.72;4844344;29;8924;-79
2021/09/09 09:48:24;;;;;;;;;9.60;9.60;;;;;28.50;23.79;102072.16;4843204;29;8860;-78
2021/09/09 09:51:39;;;;;;;;;10.40;10.40;;;;;28.67;23.68;102066.69;4847796;29;8912;-78
2021/09/09 09:54:35;;;;;;;;;12.40;12.40;;;;;28.70;23.48;102063.84;4860449;29;8993;-80
2021/09/09 09:57:33;;;;;;;;;17.00;15.40;;;;;28.50;22.77;102069.31;4866606;29;8884;-80
2021/09/09 10:00:28;;;;;;;;;4.20;4.20;;;;;28.56;21.98;102063.97;4848107;29;8870;-83
2021/09/09 10:03:26;;;;;;;;;19.80;17.40;;;;;29.10;22.13;102063.38;4859967;29;8875;-79
2021/09/09 10:06:23;;;;;;;;;12.00;12.00;;;;;28.58;22.76;102066.41;4875989;29;8860;-79
2021/09/09 10:09:19;;;;;;;;;12.60;12.60;;;;;28.99;22.38;102055.81;4871368;29;8905;-81
2021/09/09 10:12:15;;;;;;;;;13.20;12.80;;;;;28.67;21.35;102058.16;4860039;29;9583;-79
2021/09/09 10:15:12;;;;;;;;;11.60;11.60;;;;;28.75;21.72;102046.25;4859736;29;8886;-79
2021/09/09 10:18:08;;;;;;;;;6.80;6.80;;;;;29.40;24.37;102042.63;4856178;29;8866;-79
2021/09/09 10:21:04;;;;;;;;;9.80;9.80;;;;;29.49;23.86;102040.84;4871248;29;8866;-77
2021/09/09 10:24:10;;;;;;;;;12.00;12.00;;;;;29.21;24.09;102029.84;4865747;29;8881;-81
2021/09/09 10:27:42;;;;;;;;;10.60;10.60;;;;;29.04;23.43;102029.69;4853150;29;9005;-77
2021/09/09 10:31:04;;;;;;;;;12.20;11.20;;;;;28.49;24.67;102025.03;4848737;29;8912;-79
2021/09/09 10:34:20;;;;;;;;;10.40;8.80;;;;;28.55;24.77;102024.56;4850704;29;8909;-76
2021/09/09 10:37:30;;;;;;;;;12.00;12.00;;;;;28.55;24.26;102011.16;4859185;29;8885;-80
2021/09/09 10:40:32;;;;;;;;;13.00;12.00;;;;;28.64;24.72;101996.41;4858427;29;8877;-79
2021/09/09 10:43:27;;;;;;;;;12.00;11.80;;;;;28.58;25.10;102006.63;4871032;29;8999;-83
2021/09/09 10:46:30;;;;;;;;;10.00;10.00;;;;;28.74;24.67;101999.09;4830904;29;8861;-88
2021/09/09 10:49:26;;;;;;;;;11.60;11.60;;;;;29.31;23.85;101994.72;4861136;29;8859;-77
2021/09/09 10:52:22;;;;;;;;;10.60;10.60;;;;;29.28;24.22;101987.84;4878774;29;8863;-84
2021/09/09 10:55:24;;;;;;;;;11.00;11.00;;;;;29.18;24.13;101982.31;4871847;29;8863;-80
2021/09/09 10:58:20;;;;;;;;;0.80;0.00;;;;;29.16;23.59;101982.75;4859993;29;8874;-86
2021/09/09 11:01:15;;;;;;;;;9.80;9.80;;;;;29.30;22.94;101973.97;4861395;29;8897;-80
2021/09/09 11:03:47;;;;;;;;;12.80;12.80;;;;;29.01;23.30;101969.94;4860465;29;8879;-81
2021/09/09 11:06:43;;;;;;;;;11.40;10.40;;;;;28.87;23.29;101968.03;4858346;29;8874;-85
2021/09/09 11:09:42;;;;;;;;;10.40;10.20;;;;;29.16;23.14;101971.34;4845489;29;8886;-86
2021/09/09 11:12:44;;;;;;;;;13.00;13.00;;;;;29.07;24.64;101957.63;4871791;29;8899;-81
2021/09/09 11:15:39;;;;;;;;;13.20;13.00;;;;;29.03;22.70;101968.25;4859018;29;8921;-82
2021/09/09 11:18:35;;;;;;;;;9.00;9.00;;;;;29.26;23.03;101964.66;4858619;29;8916;-81
2021/09/09 11:21:51;;;;;;;;;9.00;9.00;;;;;29.34;22.94;101960.47;4859092;29;8889;-85
2021/09/09 11:24:47;;;;;;;;;13.80;13.80;;;;;28.98;24.78;101954.50;4865828;29;8935;-82
2021/09/09 11:27:42;;;;;;;;;12.20;12.20;;;;;28.80;24.66;101948.22;4847135;29;8890;-83
2021/09/09 11:30:38;;;;;;;;;10.40;10.40;;;;;29.15;24.36;101946.16;4856158;29;9011;-89
2021/09/09 11:33:49;;;;;;;;;8.20;8.20;;;;;29.01;22.70;101944.31;4878139;29;8863;-86
2021/09/09 11:36:52;;;;;;;;;14.40;14.40;;;;;28.73;23.57;101942.59;4860600;29;9061;-86
2021/09/09 11:39:49;;;;;;;;;13.80;13.80;;;;;28.85;24.22;101936.34;4855846;29;8886;-87
2021/09/09 11:42:47;;;;;;;;;16.20;15.20;;;;;29.03;24.00;101933.28;4859042;29;8878;-85
2021/09/09 11:45:54;;;;;;;;;13.40;13.40;;;;;28.86;24.66;101928.63;4847113;29;8866;-87
2021/09/09 11:48:54;;;;;;;;;16.20;15.40;;;;;29.79;24.60;101919.47;4844839;29;8961;-85
2021/09/09 11:51:54;;;;;;;;;13.60;12.60;;;;;30.31;23.22;101918.91;4828605;29;8908;-80
2021/09/09 11:54:51;;;;;;;;;18.60;18.60;;;;;30.41;22.35;101921.53;4840444;29;8873;-84
2021/09/09 11:57:47;;;;;;;;;18.20;18.20;;;;;29.67;22.23;101929.44;4844564;29;8956;-77
2021/09/09 12:00:43;;;;;;;;;15.20;15.20;;;;;29.55;22.61;101930.06;4877439;29;8879;-85
2021/09/09 12:04:43;;;;;;;;;6.20;6.20;;;;;29.51;23.82;101909.34;4878772;29;8917;-88
2021/09/09 12:07:52;;;;;;;;;13.80;13.80;;;;;29.81;23.15;101909.22;4868617;29;8995;-86
2021/09/09 12:11:14;;;;;;;;;20.40;16.60;;;;;30.76;22.57;101912.69;4839851;29;8865;-88
2021/09/09 12:14:15;;;;;;;;;13.60;13.60;;;;;30.92;21.97;101909.88;4841464;29;8892;-87
2021/09/09 12:17:14;;;;;;;;;13.60;13.40;;;;;30.78;21.46;101908.13;4849226;29;8880;-84
2021/09/09 12:20:24;;;;;;;;;15.60;15.20;;;;;30.59;21.17;101900.38;4865471;29;8879;-81
2021/09/09 12:23:20;;;;;;;;;15.80;15.00;;;;;30.73;21.71;101903.75;4868228;29;8902;-81
2021/09/09 12:26:34;;;;;;;;;16.20;16.20;;;;;30.83;21.04;101896.22;4850999;29;8895;-87
2021/09/09 12:30:26;;;;;;;;;18.40;18.40;;;;;30.21;22.98;101885.66;4873141;29;8997;-81
2021/09/09 12:33:27;;;;;;;;;16.00;16.00;;;;;30.46;22.07;101888.84;4862028;29;8875;-83
2021/09/09 12:36:23;;;;;;;;;14.80;14.80;;;;;30.19;21.57;101883.25;4859489;29;8864;-83
2021/09/09 12:39:20;;;;;;;;;17.80;17.20;;;;;30.39;22.31;101883.28;4847888;29;8894;-85
2021/09/09 12:42:30;;;;;;;;;21.00;19.40;;;;;30.47;22.39;101881.88;4850873;29;8890;-87
2021/09/09 12:45:42;;;;;;;;;3.20;1.20;;;;;31.01;21.55;101875.78;4861571;29;8882;-84
2021/09/09 12:48:38;;;;;;;;;19.80;19.80;;;;;30.62;20.86;101877.47;4859559;29;8992;-84
2021/09/09 12:51:46;;;;;;;;;19.20;19.00;;;;;30.99;21.40;101872.56;4847893;29;9632;-86
2021/09/09 12:54:46;;;;;;;;;19.00;18.80;;;;;31.29;21.66;101874.31;4832054;29;8873;-84
2021/09/09 12:57:42;;;;;;;;;21.00;21.00;;;;;31.85;21.32;101874.09;4856567;29;8886;-85
2021/09/09 13:00:37;;;;;;;;;25.40;22.40;;;;;31.89;21.44;101871.91;4859352;29;8879;-83
2021/09/09 13:03:33;;;;;;;;;22.60;21.20;;;;;32.06;19.88;101872.69;4860965;29;8902;-83
2021/09/09 13:06:29;;;;;;;;;27.40;25.80;;;;;32.01;20.60;101867.53;4860214;29;8940;-83
2021/09/09 13:09:26;;;;;;;;;26.20;26.20;;;;;31.47;20.53;101874.66;4860213;29;9593;-85
2021/09/09 13:12:21;;;;;;;;;21.40;19.40;;;;;31.18;19.52;101865.97;4848848;29;8900;-86
2021/09/09 13:15:17;;;;;;;;;27.00;24.80;;;;;31.11;20.72;101868.19;4845870;29;8882;-86
2021/09/09 13:18:13;;;;;;;;;23.40;23.40;;;;;31.65;21.08;101859.88;4833413;29;8869;-89
2021/09/09 13:21:11;;;;;;;;;23.40;21.60;;;;;31.02;20.92;101854.53;4842008;29;8880;-87
2021/09/09 13:24:07;;;;;;;;;29.20;27.60;;;;;31.24;20.83;101852.78;4830341;29;8865;-86
2021/09/09 13:27:02;;;;;;;;;29.00;28.40;;;;;31.28;20.86;101858.41;4830575;29;9057;-84
2021/09/09 13:29:58;;;;;;;;;36.80;31.80;;;;;31.20;22.08;101854.09;4854422;29;8882;-86
2021/09/09 13:32:53;;;;;;;;;26.20;25.80;;;;;31.22;20.87;101855.31;4861053;29;8890;-85